sensor_id;sensor_type;location;lat;lon;timestamp;temperature;humidity
23618;DHT22;18207;32.078;34.818;2022-09-27T00:02:01;31.80;41.40
23618;DHT22;18207;32.078;34.818;2022-09-27T00:04:34;31.80;41.50
23618;DHT22;18207;32.078;34.818;2022-09-27T00:07:04;31.70;41.40
23618;DHT22;18207;32.078;34.818;2022-09-27T00:09:35;31.70;41.30
23618;DHT22;18207;32.078;34.818;2022-09-27T00:12:06;31.70;41.30
23618;DHT22;18207;32.078;34.818;2022-09-27T00:14:40;31.70;41.40
23618;DHT22;18207;32.078;34.818;2022-09-27T00:17:39;31.70;41.40
23618;DHT22;18207;32.078;34.818;2022-09-27T00:20:25;31.70;41.40
23618;DHT22;18207;32.078;34.818;2022-09-27T00:22:56;31.70;41.50
23618;DHT22;18207;32.078;34.818;2022-09-27T00:25:27;31.70;41.50
23618;DHT22;18207;32.078;34.818;2022-09-27T00:27:58;31.70;41.50
23618;DHT22;18207;32.078;34.818;2022-09-27T00:30:29;31.70;41.50
23618;DHT22;18207;32.078;34.818;2022-09-27T00:33:00;31.70;41.50
23618;DHT22;18207;32.078;34.818;2022-09-27T00:35:32;31.70;41.60
23618;DHT22;18207;32.078;34.818;2022-09-27T00:38:06;31.60;41.50
23618;DHT22;18207;32.078;34.818;2022-09-27T00:40:36;31.70;41.60
23618;DHT22;18207;32.078;34.818;2022-09-27T00:43:17;31.70;41.60
23618;DHT22;18207;32.078;34.818;2022-09-27T00:45:51;31.60;41.60
23618;DHT22;18207;32.078;34.818;2022-09-27T00:48:31;31.60;41.60
23618;DHT22;18207;32.078;34.818;2022-09-27T00:51:08;31.60;41.60
23618;DHT22;18207;32.078;34.818;2022-09-27T00:53:42;31.60;41.60
23618;DHT22;18207;32.078;34.818;2022-09-27T00:56:21;31.60;41.70
23618;DHT22;18207;32.078;34.818;2022-09-27T00:59:05;31.60;41.70
23618;DHT22;18207;32.078;34.818;2022-09-27T01:01:39;31.60;41.70
23618;DHT22;18207;32.078;34.818;2022-09-27T01:04:11;31.60;41.70
23618;DHT22;18207;32.078;34.818;2022-09-27T01:06:48;31.60;41.80
23618;DHT22;18207;32.078;34.818;2022-09-27T01:09:19;31.60;41.80
23618;DHT22;18207;32.078;34.818;2022-09-27T01:11:56;31.60;41.80
23618;DHT22;18207;32.078;34.818;2022-09-27T01:14:48;31.50;41.80
23618;DHT22;18207;32.078;34.818;2022-09-27T01:17:40;31.50;41.90
23618;DHT22;18207;32.078;34.818;2022-09-27T01:27:36;31.50;42.00
23618;DHT22;18207;32.078;34.818;2022-09-27T01:30:32;31.50;42.00
23618;DHT22;18207;32.078;34.818;2022-09-27T01:33:16;31.50;41.90
23618;DHT22;18207;32.078;34.818;2022-09-27T01:36:19;31.50;42.10
23618;DHT22;18207;32.078;34.818;2022-09-27T01:39:07;31.50;42.10
23618;DHT22;18207;32.078;34.818;2022-09-27T01:41:56;31.40;42.00
23618;DHT22;18207;32.078;34.818;2022-09-27T01:44:36;31.40;42.00
23618;DHT22;18207;32.078;34.818;2022-09-27T01:47:19;31.40;42.00
23618;DHT22;18207;32.078;34.818;2022-09-27T01:49:55;31.40;42.00
23618;DHT22;18207;32.078;34.818;2022-09-27T01:52:35;31.40;42.00
23618;DHT22;18207;32.078;34.818;2022-09-27T01:55:11;31.40;42.00
23618;DHT22;18207;32.078;34.818;2022-09-27T01:57:48;31.40;42.00
23618;DHT22;18207;32.078;34.818;2022-09-27T02:00:25;31.40;42.10
23618;DHT22;18207;32.078;34.818;2022-09-27T02:03:00;31.30;42.10
23618;DHT22;18207;32.078;34.818;2022-09-27T02:05:40;31.30;42.10
23618;DHT22;18207;32.078;34.818;2022-09-27T02:08:18;31.30;42.10
23618;DHT22;18207;32.078;34.818;2022-09-27T02:10:56;31.30;42.20
23618;DHT22;18207;32.078;34.818;2022-09-27T02:13:34;31.30;42.20
23618;DHT22;18207;32.078;34.818;2022-09-27T02:16:18;31.30;42.30
23618;DHT22;18207;32.078;34.818;2022-09-27T02:18:59;31.30;42.30
23618;DHT22;18207;32.078;34.818;2022-09-27T02:21:48;31.30;42.40
23618;DHT22;18207;32.078;34.818;2022-09-27T02:24:30;31.30;42.30
23618;DHT22;18207;32.078;34.818;2022-09-27T02:27:11;31.30;42.50
23618;DHT22;18207;32.078;34.818;2022-09-27T02:29:48;31.30;42.50
23618;DHT22;18207;32.078;34.818;2022-09-27T02:32:21;31.30;42.50
23618;DHT22;18207;32.078;34.818;2022-09-27T02:34:55;31.30;42.40
23618;DHT22;18207;32.078;34.818;2022-09-27T02:37:27;31.30;42.30
23618;DHT22;18207;32.078;34.818;2022-09-27T02:39:58;31.30;42.20
23618;DHT22;18207;32.078;34.818;2022-09-27T02:42:31;31.20;42.10
23618;DHT22;18207;32.078;34.818;2022-09-27T02:45:04;31.20;42.10
23618;DHT22;18207;32.078;34.818;2022-09-27T02:47:48;31.20;42.10
23618;DHT22;18207;32.078;34.818;2022-09-27T02:53:59;31.10;42.10
23618;DHT22;18207;32.078;34.818;2022-09-27T02:56:50;31.10;42.00
23618;DHT22;18207;32.078;34.818;2022-09-27T02:59:40;31.00;41.90
23618;DHT22;18207;32.078;34.818;2022-09-27T03:02:22;31.00;41.90
23618;DHT22;18207;32.078;34.818;2022-09-27T03:05:04;30.90;41.90
23618;DHT22;18207;32.078;34.818;2022-09-27T03:07:38;30.90;41.90
23618;DHT22;18207;32.078;34.818;2022-09-27T03:10:16;30.90;42.00
23618;DHT22;18207;32.078;34.818;2022-09-27T03:12:48;30.90;42.10
23618;DHT22;18207;32.078;34.818;2022-09-27T03:15:20;30.90;42.00
23618;DHT22;18207;32.078;34.818;2022-09-27T03:17:50;30.80;42.00
23618;DHT22;18207;32.078;34.818;2022-09-27T03:20:20;30.80;41.90
23618;DHT22;18207;32.078;34.818;2022-09-27T03:22:51;30.80;42.00
23618;DHT22;18207;32.078;34.818;2022-09-27T03:25:24;30.80;41.90
23618;DHT22;18207;32.078;34.818;2022-09-27T03:27:55;30.80;41.80
23618;DHT22;18207;32.078;34.818;2022-09-27T03:30:25;30.70;41.70
23618;DHT22;18207;32.078;34.818;2022-09-27T03:32:54;30.70;41.60
23618;DHT22;18207;32.078;34.818;2022-09-27T03:35:25;30.70;41.60
23618;DHT22;18207;32.078;34.818;2022-09-27T03:37:55;30.70;41.60
23618;DHT22;18207;32.078;34.818;2022-09-27T03:40:28;30.60;41.50
23618;DHT22;18207;32.078;34.818;2022-09-27T03:42:59;30.50;41.50
23618;DHT22;18207;32.078;34.818;2022-09-27T03:45:29;30.60;41.60
23618;DHT22;18207;32.078;34.818;2022-09-27T03:48:00;30.50;41.50
23618;DHT22;18207;32.078;34.818;2022-09-27T03:50:30;30.50;41.50
23618;DHT22;18207;32.078;34.818;2022-09-27T03:53:01;30.50;41.50
23618;DHT22;18207;32.078;34.818;2022-09-27T03:55:35;30.50;41.50
23618;DHT22;18207;32.078;34.818;2022-09-27T03:58:05;30.50;41.50
23618;DHT22;18207;32.078;34.818;2022-09-27T04:00:36;30.50;41.50
23618;DHT22;18207;32.078;34.818;2022-09-27T04:03:07;30.50;41.50
23618;DHT22;18207;32.078;34.818;2022-09-27T04:05:39;30.50;41.50
23618;DHT22;18207;32.078;34.818;2022-09-27T04:08:09;30.40;41.40
23618;DHT22;18207;32.078;34.818;2022-09-27T04:10:42;30.50;41.50
23618;DHT22;18207;32.078;34.818;2022-09-27T04:13:12;30.50;41.40
23618;DHT22;18207;32.078;34.818;2022-09-27T04:15:43;30.50;41.40
23618;DHT22;18207;32.078;34.818;2022-09-27T04:18:45;30.50;41.30
23618;DHT22;18207;32.078;34.818;2022-09-27T04:21:16;30.50;41.30
23618;DHT22;18207;32.078;34.818;2022-09-27T04:23:47;30.50;41.90
23618;DHT22;18207;32.078;34.818;2022-09-27T04:26:19;30.50;41.20
23618;DHT22;18207;32.078;34.818;2022-09-27T04:28:50;30.50;41.10
23618;DHT22;18207;32.078;34.818;2022-09-27T04:31:21;30.50;41.10
23618;DHT22;18207;32.078;34.818;2022-09-27T04:33:52;30.60;41.20
23618;DHT22;18207;32.078;34.818;2022-09-27T04:36:23;30.50;41.10
23618;DHT22;18207;32.078;34.818;2022-09-27T04:38:54;30.60;41.20
23618;DHT22;18207;32.078;34.818;2022-09-27T04:41:28;30.60;41.40
23618;DHT22;18207;32.078;34.818;2022-09-27T04:43:58;30.70;41.40
23618;DHT22;18207;32.078;34.818;2022-09-27T04:46:28;30.70;41.30
23618;DHT22;18207;32.078;34.818;2022-09-27T04:48:59;30.80;41.40
23618;DHT22;18207;32.078;34.818;2022-09-27T04:51:30;30.80;41.30
23618;DHT22;18207;32.078;34.818;2022-09-27T04:54:01;30.90;41.30
23618;DHT22;18207;32.078;34.818;2022-09-27T04:56:33;30.90;41.30
23618;DHT22;18207;32.078;34.818;2022-09-27T04:59:04;31.00;41.40
23618;DHT22;18207;32.078;34.818;2022-09-27T05:01:36;31.00;41.40
23618;DHT22;18207;32.078;34.818;2022-09-27T05:04:07;31.10;41.40
23618;DHT22;18207;32.078;34.818;2022-09-27T05:06:37;31.10;41.30
23618;DHT22;18207;32.078;34.818;2022-09-27T05:09:08;31.20;41.40
23618;DHT22;18207;32.078;34.818;2022-09-27T05:11:40;31.30;41.50
23618;DHT22;18207;32.078;34.818;2022-09-27T05:14:10;31.40;42.20
23618;DHT22;18207;32.078;34.818;2022-09-27T05:16:41;31.50;41.70
23618;DHT22;18207;32.078;34.818;2022-09-27T05:19:11;31.60;41.70
23618;DHT22;18207;32.078;34.818;2022-09-27T05:21:41;31.70;41.70
23618;DHT22;18207;32.078;34.818;2022-09-27T05:24:12;31.80;41.70
23618;DHT22;18207;32.078;34.818;2022-09-27T05:26:44;32.00;41.70
23618;DHT22;18207;32.078;34.818;2022-09-27T05:29:15;32.00;41.70
23618;DHT22;18207;32.078;34.818;2022-09-27T05:31:45;32.20;41.80
23618;DHT22;18207;32.078;34.818;2022-09-27T05:34:16;32.30;41.80
23618;DHT22;18207;32.078;34.818;2022-09-27T05:36:47;32.40;41.80
23618;DHT22;18207;32.078;34.818;2022-09-27T05:39:18;32.50;41.60
23618;DHT22;18207;32.078;34.818;2022-09-27T05:41:50;32.70;41.70
23618;DHT22;18207;32.078;34.818;2022-09-27T05:44:21;32.80;41.70
23618;DHT22;18207;32.078;34.818;2022-09-27T05:46:52;32.90;41.70
23618;DHT22;18207;32.078;34.818;2022-09-27T05:49:22;33.00;41.80
23618;DHT22;18207;32.078;34.818;2022-09-27T05:51:53;33.10;41.70
23618;DHT22;18207;32.078;34.818;2022-09-27T05:54:24;33.20;41.60
23618;DHT22;18207;32.078;34.818;2022-09-27T05:56:58;33.30;41.60
23618;DHT22;18207;32.078;34.818;2022-09-27T05:59:29;33.40;41.40
23618;DHT22;18207;32.078;34.818;2022-09-27T06:02:02;33.40;41.40
23618;DHT22;18207;32.078;34.818;2022-09-27T06:04:33;33.50;41.50
23618;DHT22;18207;32.078;34.818;2022-09-27T06:07:03;33.60;41.50
23618;DHT22;18207;32.078;34.818;2022-09-27T06:09:34;33.70;41.50
23618;DHT22;18207;32.078;34.818;2022-09-27T06:12:06;33.80;41.40
23618;DHT22;18207;32.078;34.818;2022-09-27T06:14:38;33.90;41.40
23618;DHT22;18207;32.078;34.818;2022-09-27T06:17:08;33.90;41.30
23618;DHT22;18207;32.078;34.818;2022-09-27T06:19:39;34.00;41.20
23618;DHT22;18207;32.078;34.818;2022-09-27T06:22:10;34.00;41.00
23618;DHT22;18207;32.078;34.818;2022-09-27T06:24:41;34.10;41.10
23618;DHT22;18207;32.078;34.818;2022-09-27T06:27:13;34.20;41.10
23618;DHT22;18207;32.078;34.818;2022-09-27T06:29:44;34.30;41.20
23618;DHT22;18207;32.078;34.818;2022-09-27T06:32:14;34.30;41.10
23618;DHT22;18207;32.078;34.818;2022-09-27T06:34:45;34.40;41.10
23618;DHT22;18207;32.078;34.818;2022-09-27T06:37:15;34.40;41.00
23618;DHT22;18207;32.078;34.818;2022-09-27T06:39:45;34.50;41.00
23618;DHT22;18207;32.078;34.818;2022-09-27T06:42:20;34.60;41.00
23618;DHT22;18207;32.078;34.818;2022-09-27T06:44:50;34.60;40.90
23618;DHT22;18207;32.078;34.818;2022-09-27T06:47:20;34.70;40.90
23618;DHT22;18207;32.078;34.818;2022-09-27T06:49:52;34.80;40.90
23618;DHT22;18207;32.078;34.818;2022-09-27T06:52:23;34.80;40.70
23618;DHT22;18207;32.078;34.818;2022-09-27T06:54:53;34.90;40.70
23618;DHT22;18207;32.078;34.818;2022-09-27T06:57:26;34.90;40.60
23618;DHT22;18207;32.078;34.818;2022-09-27T07:00:14;35.00;40.60
23618;DHT22;18207;32.078;34.818;2022-09-27T07:02:54;35.10;40.60
23618;DHT22;18207;32.078;34.818;2022-09-27T07:05:28;35.20;40.60
23618;DHT22;18207;32.078;34.818;2022-09-27T07:08:00;35.20;40.50
23618;DHT22;18207;32.078;34.818;2022-09-27T07:10:35;35.30;40.40
23618;DHT22;18207;32.078;34.818;2022-09-27T07:13:10;35.40;40.40
23618;DHT22;18207;32.078;34.818;2022-09-27T07:15:41;35.40;40.20
23618;DHT22;18207;32.078;34.818;2022-09-27T07:18:11;35.50;40.20
23618;DHT22;18207;32.078;34.818;2022-09-27T07:20:42;35.60;40.20
23618;DHT22;18207;32.078;34.818;2022-09-27T07:23:13;35.60;40.10
23618;DHT22;18207;32.078;34.818;2022-09-27T07:25:43;35.70;40.10
23618;DHT22;18207;32.078;34.818;2022-09-27T07:28:18;35.80;40.20
23618;DHT22;18207;32.078;34.818;2022-09-27T07:30:49;35.90;40.20
23618;DHT22;18207;32.078;34.818;2022-09-27T07:33:24;35.90;40.10
23618;DHT22;18207;32.078;34.818;2022-09-27T07:35:54;36.00;40.10
23618;DHT22;18207;32.078;34.818;2022-09-27T07:38:24;36.00;40.00
23618;DHT22;18207;32.078;34.818;2022-09-27T07:40:55;36.10;39.90
23618;DHT22;18207;32.078;34.818;2022-09-27T07:43:29;36.10;39.80
23618;DHT22;18207;32.078;34.818;2022-09-27T07:45:59;36.20;39.70
23618;DHT22;18207;32.078;34.818;2022-09-27T07:48:30;36.20;39.60
23618;DHT22;18207;32.078;34.818;2022-09-27T07:51:01;36.30;39.60
23618;DHT22;18207;32.078;34.818;2022-09-27T07:53:34;36.30;39.40
23618;DHT22;18207;32.078;34.818;2022-09-27T07:56:05;36.40;39.40
23618;DHT22;18207;32.078;34.818;2022-09-27T07:58:38;36.30;39.20
23618;DHT22;18207;32.078;34.818;2022-09-27T08:01:09;36.40;39.30
23618;DHT22;18207;32.078;34.818;2022-09-27T08:03:39;36.40;39.30
23618;DHT22;18207;32.078;34.818;2022-09-27T08:06:10;36.40;39.10
23618;DHT22;18207;32.078;34.818;2022-09-27T08:08:41;36.50;39.00
23618;DHT22;18207;32.078;34.818;2022-09-27T08:11:13;36.50;39.00
23618;DHT22;18207;32.078;34.818;2022-09-27T08:13:47;36.50;38.90
23618;DHT22;18207;32.078;34.818;2022-09-27T08:16:18;36.60;38.70
23618;DHT22;18207;32.078;34.818;2022-09-27T08:18:49;36.60;38.70
23618;DHT22;18207;32.078;34.818;2022-09-27T08:21:19;36.60;38.60
23618;DHT22;18207;32.078;34.818;2022-09-27T08:23:49;36.70;38.60
23618;DHT22;18207;32.078;34.818;2022-09-27T08:26:20;36.60;38.40
23618;DHT22;18207;32.078;34.818;2022-09-27T08:28:53;36.70;38.40
23618;DHT22;18207;32.078;34.818;2022-09-27T08:31:23;36.70;38.40
23618;DHT22;18207;32.078;34.818;2022-09-27T08:33:54;36.70;38.30
23618;DHT22;18207;32.078;34.818;2022-09-27T08:36:24;36.80;38.30
23618;DHT22;18207;32.078;34.818;2022-09-27T08:38:55;36.70;38.70
23618;DHT22;18207;32.078;34.818;2022-09-27T08:41:33;36.80;38.10
23618;DHT22;18207;32.078;34.818;2022-09-27T08:44:25;36.80;38.00
23618;DHT22;18207;32.078;34.818;2022-09-27T08:47:05;36.80;37.80
23618;DHT22;18207;32.078;34.818;2022-09-27T08:49:44;36.80;37.80
23618;DHT22;18207;32.078;34.818;2022-09-27T08:52:21;36.80;37.60
23618;DHT22;18207;32.078;34.818;2022-09-27T08:54:57;36.80;37.50
23618;DHT22;18207;32.078;34.818;2022-09-27T08:57:32;36.80;37.40
23618;DHT22;18207;32.078;34.818;2022-09-27T09:00:09;36.90;37.20
23618;DHT22;18207;32.078;34.818;2022-09-27T09:02:41;36.80;37.00
23618;DHT22;18207;32.078;34.818;2022-09-27T09:05:15;36.90;37.00
23618;DHT22;18207;32.078;34.818;2022-09-27T09:11:00;36.90;36.70
23618;DHT22;18207;32.078;34.818;2022-09-27T09:14:09;36.90;36.60
23618;DHT22;18207;32.078;34.818;2022-09-27T09:17:14;36.90;36.20
23618;DHT22;18207;32.078;34.818;2022-09-27T09:20:02;37.00;35.70
23618;DHT22;18207;32.078;34.818;2022-09-27T09:23:04;36.90;35.40
23618;DHT22;18207;32.078;34.818;2022-09-27T09:25:57;36.90;35.20
23618;DHT22;18207;32.078;34.818;2022-09-27T09:28:43;36.90;35.00
23618;DHT22;18207;32.078;34.818;2022-09-27T09:31:32;36.90;35.00
23618;DHT22;18207;32.078;34.818;2022-09-27T09:34:17;36.90;35.00
23618;DHT22;18207;32.078;34.818;2022-09-27T09:36:54;36.90;34.80
23618;DHT22;18207;32.078;34.818;2022-09-27T09:39:37;36.80;34.80
23618;DHT22;18207;32.078;34.818;2022-09-27T09:42:21;36.80;34.50
23618;DHT22;18207;32.078;34.818;2022-09-27T09:45:00;36.80;34.50
23618;DHT22;18207;32.078;34.818;2022-09-27T09:47:36;36.90;34.60
23618;DHT22;18207;32.078;34.818;2022-09-27T09:50:17;36.80;34.50
23618;DHT22;18207;32.078;34.818;2022-09-27T09:52:56;36.90;34.50
23618;DHT22;18207;32.078;34.818;2022-09-27T09:55:34;36.90;34.60
23618;DHT22;18207;32.078;34.818;2022-09-27T09:58:16;36.80;34.50
23618;DHT22;18207;32.078;34.818;2022-09-27T10:00:54;36.80;34.20
23618;DHT22;18207;32.078;34.818;2022-09-27T10:03:29;36.90;34.40
23618;DHT22;18207;32.078;34.818;2022-09-27T10:06:03;36.80;34.20
23618;DHT22;18207;32.078;34.818;2022-09-27T10:08:34;36.80;34.00
23618;DHT22;18207;32.078;34.818;2022-09-27T10:11:05;36.80;33.90
23618;DHT22;18207;32.078;34.818;2022-09-27T10:13:41;36.80;34.00
23618;DHT22;18207;32.078;34.818;2022-09-27T10:16:14;36.80;34.00
23618;DHT22;18207;32.078;34.818;2022-09-27T10:18:47;36.80;33.90
23618;DHT22;18207;32.078;34.818;2022-09-27T10:21:22;36.80;34.00
23618;DHT22;18207;32.078;34.818;2022-09-27T10:24:10;36.80;34.10
23618;DHT22;18207;32.078;34.818;2022-09-27T10:26:46;36.80;33.90
23618;DHT22;18207;32.078;34.818;2022-09-27T10:29:29;36.80;34.00
23618;DHT22;18207;32.078;34.818;2022-09-27T10:32:05;36.80;33.70
23618;DHT22;18207;32.078;34.818;2022-09-27T10:34:52;36.80;33.80
23618;DHT22;18207;32.078;34.818;2022-09-27T10:37:26;36.70;33.60
23618;DHT22;18207;32.078;34.818;2022-09-27T10:39:57;36.70;33.50
23618;DHT22;18207;32.078;34.818;2022-09-27T10:42:32;36.60;33.50
23618;DHT22;18207;32.078;34.818;2022-09-27T10:45:26;36.60;33.40
23618;DHT22;18207;32.078;34.818;2022-09-27T10:47:58;36.60;33.20
23618;DHT22;18207;32.078;34.818;2022-09-27T10:50:31;36.60;33.50
23618;DHT22;18207;32.078;34.818;2022-09-27T10:53:21;36.50;33.50
23618;DHT22;18207;32.078;34.818;2022-09-27T10:55:52;36.50;33.50
23618;DHT22;18207;32.078;34.818;2022-09-27T10:58:27;36.50;33.60
23618;DHT22;18207;32.078;34.818;2022-09-27T11:01:01;36.40;33.60
23618;DHT22;18207;32.078;34.818;2022-09-27T11:03:38;36.40;33.70
23618;DHT22;18207;32.078;34.818;2022-09-27T11:06:28;36.40;33.70
23618;DHT22;18207;32.078;34.818;2022-09-27T11:09:19;36.40;33.70
23618;DHT22;18207;32.078;34.818;2022-09-27T11:12:07;36.40;33.80
23618;DHT22;18207;32.078;34.818;2022-09-27T11:14:39;36.30;33.70
23618;DHT22;18207;32.078;34.818;2022-09-27T11:17:16;36.30;33.80
23618;DHT22;18207;32.078;34.818;2022-09-27T11:20:02;36.30;33.80
23618;DHT22;18207;32.078;34.818;2022-09-27T11:23:16;36.20;34.30
23618;DHT22;18207;32.078;34.818;2022-09-27T11:26:11;36.20;33.70
23618;DHT22;18207;32.078;34.818;2022-09-27T11:28:59;36.20;33.80
23618;DHT22;18207;32.078;34.818;2022-09-27T11:31:45;36.10;33.80
23618;DHT22;18207;32.078;34.818;2022-09-27T11:34:34;36.10;33.80
23618;DHT22;18207;32.078;34.818;2022-09-27T11:37:25;36.00;33.70
23618;DHT22;18207;32.078;34.818;2022-09-27T11:40:19;36.00;33.80
23618;DHT22;18207;32.078;34.818;2022-09-27T11:43:23;36.00;33.90
23618;DHT22;18207;32.078;34.818;2022-09-27T11:46:12;35.90;33.80
23618;DHT22;18207;32.078;34.818;2022-09-27T11:49:30;35.90;33.80
23618;DHT22;18207;32.078;34.818;2022-09-27T11:52:26;35.80;33.80
23618;DHT22;18207;32.078;34.818;2022-09-27T11:55:19;35.80;33.90
23618;DHT22;18207;32.078;34.818;2022-09-27T11:58:09;35.80;34.00
23618;DHT22;18207;32.078;34.818;2022-09-27T12:01:08;35.80;34.10
23618;DHT22;18207;32.078;34.818;2022-09-27T12:07:20;35.70;33.90
23618;DHT22;18207;32.078;34.818;2022-09-27T12:10:02;35.70;33.90
23618;DHT22;18207;32.078;34.818;2022-09-27T12:12:39;35.70;33.80
23618;DHT22;18207;32.078;34.818;2022-09-27T12:15:15;35.60;33.80
23618;DHT22;18207;32.078;34.818;2022-09-27T12:17:54;35.60;33.80
23618;DHT22;18207;32.078;34.818;2022-09-27T12:20:31;35.60;33.80
23618;DHT22;18207;32.078;34.818;2022-09-27T12:23:09;35.60;33.90
23618;DHT22;18207;32.078;34.818;2022-09-27T12:25:43;35.60;33.90
23618;DHT22;18207;32.078;34.818;2022-09-27T12:28:23;35.50;33.90
23618;DHT22;18207;32.078;34.818;2022-09-27T12:31:05;35.50;33.80
23618;DHT22;18207;32.078;34.818;2022-09-27T12:34:08;35.50;33.80
23618;DHT22;18207;32.078;34.818;2022-09-27T12:36:50;35.40;33.80
23618;DHT22;18207;32.078;34.818;2022-09-27T12:39:36;35.40;33.90
23618;DHT22;18207;32.078;34.818;2022-09-27T12:42:19;35.30;33.90
23618;DHT22;18207;32.078;34.818;2022-09-27T12:44:53;35.30;33.90
23618;DHT22;18207;32.078;34.818;2022-09-27T12:47:51;35.30;33.90
23618;DHT22;18207;32.078;34.818;2022-09-27T12:50:41;35.10;34.10
23618;DHT22;18207;32.078;34.818;2022-09-27T12:53:16;35.10;33.80
23618;DHT22;18207;32.078;34.818;2022-09-27T12:56:08;35.10;33.80
23618;DHT22;18207;32.078;34.818;2022-09-27T12:59:11;35.00;33.80
23618;DHT22;18207;32.078;34.818;2022-09-27T13:02:17;35.00;34.00
23618;DHT22;18207;32.078;34.818;2022-09-27T13:06:06;34.90;34.60
23618;DHT22;18207;32.078;34.818;2022-09-27T13:09:28;34.90;34.10
23618;DHT22;18207;32.078;34.818;2022-09-27T13:12:20;34.90;34.20
23618;DHT22;18207;32.078;34.818;2022-09-27T13:14:58;34.80;34.20
23618;DHT22;18207;32.078;34.818;2022-09-27T13:17:46;34.80;34.30
23618;DHT22;18207;32.078;34.818;2022-09-27T13:20:47;34.80;34.30
23618;DHT22;18207;32.078;34.818;2022-09-27T13:26:48;34.70;34.20
23618;DHT22;18207;32.078;34.818;2022-09-27T13:29:25;34.70;34.40
23618;DHT22;18207;32.078;34.818;2022-09-27T13:32:24;34.60;34.40
23618;DHT22;18207;32.078;34.818;2022-09-27T13:35:10;34.60;34.20
23618;DHT22;18207;32.078;34.818;2022-09-27T13:37:49;34.60;34.00
23618;DHT22;18207;32.078;34.818;2022-09-27T13:43:56;34.50;33.90
23618;DHT22;18207;32.078;34.818;2022-09-27T13:46:34;34.50;34.00
23618;DHT22;18207;32.078;34.818;2022-09-27T13:49:15;34.40;34.00
23618;DHT22;18207;32.078;34.818;2022-09-27T13:51:53;34.40;33.90
23618;DHT22;18207;32.078;34.818;2022-09-27T13:54:39;34.40;33.90
23618;DHT22;18207;32.078;34.818;2022-09-27T13:57:46;34.30;33.90
23618;DHT22;18207;32.078;34.818;2022-09-27T14:00:22;34.30;34.10
23618;DHT22;18207;32.078;34.818;2022-09-27T14:03:00;34.30;33.90
23618;DHT22;18207;32.078;34.818;2022-09-27T14:05:39;34.30;33.70
23618;DHT22;18207;32.078;34.818;2022-09-27T14:08:22;34.30;33.70
23618;DHT22;18207;32.078;34.818;2022-09-27T14:11:02;34.20;33.50
23618;DHT22;18207;32.078;34.818;2022-09-27T14:13:42;34.20;33.50
23618;DHT22;18207;32.078;34.818;2022-09-27T14:16:17;34.10;33.50
23618;DHT22;18207;32.078;34.818;2022-09-27T14:18:50;34.10;33.50
23618;DHT22;18207;32.078;34.818;2022-09-27T14:21:29;34.10;33.50
23618;DHT22;18207;32.078;34.818;2022-09-27T14:24:25;34.10;33.50
23618;DHT22;18207;32.078;34.818;2022-09-27T14:27:12;34.10;33.20
23618;DHT22;18207;32.078;34.818;2022-09-27T14:29:48;34.10;33.30
23618;DHT22;18207;32.078;34.818;2022-09-27T14:32:25;34.10;33.40
23618;DHT22;18207;32.078;34.818;2022-09-27T14:35:09;34.00;33.40
23618;DHT22;18207;32.078;34.818;2022-09-27T14:37:55;34.00;33.30
23618;DHT22;18207;32.078;34.818;2022-09-27T14:40:43;34.00;33.40
23618;DHT22;18207;32.078;34.818;2022-09-27T14:43:24;34.00;33.40
23618;DHT22;18207;32.078;34.818;2022-09-27T14:46:00;34.00;33.50
23618;DHT22;18207;32.078;34.818;2022-09-27T14:48:36;34.00;33.50
23618;DHT22;18207;32.078;34.818;2022-09-27T14:51:18;34.00;33.50
23618;DHT22;18207;32.078;34.818;2022-09-27T14:53:52;34.00;33.50
23618;DHT22;18207;32.078;34.818;2022-09-27T14:56:27;33.90;33.50
23618;DHT22;18207;32.078;34.818;2022-09-27T14:59:03;34.00;33.70
23618;DHT22;18207;32.078;34.818;2022-09-27T15:01:39;33.90;33.60
23618;DHT22;18207;32.078;34.818;2022-09-27T15:04:19;33.90;33.60
23618;DHT22;18207;32.078;34.818;2022-09-27T15:06:52;33.90;33.70
23618;DHT22;18207;32.078;34.818;2022-09-27T15:09:24;33.90;33.70
23618;DHT22;18207;32.078;34.818;2022-09-27T15:12:00;33.90;33.80
23618;DHT22;18207;32.078;34.818;2022-09-27T15:14:35;33.90;33.90
23618;DHT22;18207;32.078;34.818;2022-09-27T15:17:16;33.90;33.80
23618;DHT22;18207;32.078;34.818;2022-09-27T15:19:57;33.90;33.80
23618;DHT22;18207;32.078;34.818;2022-09-27T15:22:34;33.80;33.80
23618;DHT22;18207;32.078;34.818;2022-09-27T15:25:19;33.80;33.90
23618;DHT22;18207;32.078;34.818;2022-09-27T15:28:03;33.80;33.90
23618;DHT22;18207;32.078;34.818;2022-09-27T15:30:37;33.80;34.00
23618;DHT22;18207;32.078;34.818;2022-09-27T15:33:19;33.80;34.00
23618;DHT22;18207;32.078;34.818;2022-09-27T15:35:53;33.70;34.00
23618;DHT22;18207;32.078;34.818;2022-09-27T15:38:30;33.70;34.20
23618;DHT22;18207;32.078;34.818;2022-09-27T15:41:06;33.70;34.20
23618;DHT22;18207;32.078;34.818;2022-09-27T15:43:43;33.70;34.20
23618;DHT22;18207;32.078;34.818;2022-09-27T15:46:42;33.70;34.20
23618;DHT22;18207;32.078;34.818;2022-09-27T15:49:29;33.60;34.10
23618;DHT22;18207;32.078;34.818;2022-09-27T15:52:02;33.60;34.10
23618;DHT22;18207;32.078;34.818;2022-09-27T15:54:34;33.60;34.10
23618;DHT22;18207;32.078;34.818;2022-09-27T15:57:05;33.60;34.30
23618;DHT22;18207;32.078;34.818;2022-09-27T15:59:38;33.60;34.40
23618;DHT22;18207;32.078;34.818;2022-09-27T16:02:16;33.60;34.50
23618;DHT22;18207;32.078;34.818;2022-09-27T16:04:50;33.60;34.60
23618;DHT22;18207;32.078;34.818;2022-09-27T16:07:20;33.50;34.60
23618;DHT22;18207;32.078;34.818;2022-09-27T16:09:51;33.50;34.70
23618;DHT22;18207;32.078;34.818;2022-09-27T16:12:22;33.50;34.80
23618;DHT22;18207;32.078;34.818;2022-09-27T16:14:53;33.50;34.80
23618;DHT22;18207;32.078;34.818;2022-09-27T16:17:24;33.50;34.80
23618;DHT22;18207;32.078;34.818;2022-09-27T16:19:57;33.50;34.90
23618;DHT22;18207;32.078;34.818;2022-09-27T16:22:27;33.40;34.90
23618;DHT22;18207;32.078;34.818;2022-09-27T16:24:57;33.40;34.90
23618;DHT22;18207;32.078;34.818;2022-09-27T16:27:28;33.40;35.00
23618;DHT22;18207;32.078;34.818;2022-09-27T16:29:59;33.40;35.10
23618;DHT22;18207;32.078;34.818;2022-09-27T16:32:29;33.40;35.10
23618;DHT22;18207;32.078;34.818;2022-09-27T16:35:03;33.40;35.20
23618;DHT22;18207;32.078;34.818;2022-09-27T16:37:33;33.40;35.20
23618;DHT22;18207;32.078;34.818;2022-09-27T16:40:05;33.40;35.20
23618;DHT22;18207;32.078;34.818;2022-09-27T16:42:37;33.40;35.30
23618;DHT22;18207;32.078;34.818;2022-09-27T16:45:09;33.30;35.30